METAR Data
IDs: Format: Raw Decoded Include TAF

Data at: 1409 UTC 19 Jul 2019

METAR for:KEDC (Austin/Executive Arp, TX, US)
Text:KEDC 191355Z AUTO 20008KT 170V230 10SM SCT015 BKN022 27/23 A3002 RMK AO2
Temperature: 27.0°C ( 81°F)
Dewpoint: 23.0°C ( 73°F) [RH = 79%]
Pressure (altimeter):30.02 inches Hg (1016.7 mb)
Winds:from the SSW (200 degrees) at 9 MPH (8 knots; 4.1 m/s)
Visibility:10 or more sm (16+ km)
Ceiling:2200 feet AGL
Clouds: scattered clouds at 1500 feet AGL, broken clouds at 2200 feet AGL
QC Flag:automated observation with no human augmentation